| time (UTC) | temp F | wind direction | speed MPH | gust MPH | rain 1hr in | rain 24hr in | rain mn in | humidity % | barometer mb |
| 20260906201522 | 91 | 146 | 16.0 | 26.0 | 0.00 | 0.00 | 0.00 | 43 | 1004.5 |
| 20260906200035 | 91 | 184 | 16.0 | 24.0 | 0.00 | 0.00 | 0.00 | 44 | 1004.6 |
| 20260906194518 | 90 | 153 | 16.0 | 28.0 | 0.00 | 0.00 | 0.00 | 45 | 1004.8 |
| 20260906193017 | 90 | 146 | 12.0 | 28.0 | 0.00 | 0.00 | 0.00 | 47 | 1005.0 |
| 20260906191514 | 89 | 154 | 15.0 | 29.0 | 0.00 | 0.00 | 0.00 | 48 | 1005.2 |
| 20260906190014 | 88 | 140 | 15.0 | 32.0 | 0.00 | 0.00 | 0.00 | 50 | 1005.4 |
| 20260906190012 | 88 | 146 | 15.0 | 32.0 | 0.00 | 0.00 | 0.00 | 50 | 1005.4 |
| 20260906184511 | 88 | 125 | 17.0 | 29.0 | 0.00 | 0.00 | 0.00 | 48 | 1005.6 |
| 20260906183020 | 88 | 130 | 16.0 | 29.0 | 0.00 | 0.00 | 0.00 | 51 | 1005.7 |
| 20260906181542 | 87 | 150 | 16.0 | 28.0 | 0.00 | 0.00 | 0.00 | 51 | 1006.1 |
| 20260906180040 | 86 | 115 | 15.0 | 24.0 | 0.00 | 0.00 | 0.00 | 52 | 1006.2 |
| 20260906174536 | 86 | 123 | 14.0 | 28.0 | 0.00 | 0.00 | 0.00 | 54 | 1006.4 |
| 20260906173027 | 85 | 121 | 15.0 | 27.0 | 0.00 | 0.00 | 0.00 | 55 | 1006.7 |
| 20260906171523 | 82 | 140 | 15.0 | 26.0 | 0.00 | 0.00 | 0.00 | 60 | 1007.0 |
| 20260906170023 | 82 | 121 | 17.0 | 27.0 | 0.00 | 0.00 | 0.00 | 61 | 1007.1 |
| 20260906164556 | 82 | 150 | 13.0 | 19.0 | 0.00 | 0.00 | 0.00 | 62 | 1007.2 |
| 20260906163053 | 81 | 101 | 16.0 | 27.0 | 0.00 | 0.00 | 0.00 | 62 | 1007.3 |
| 20260906161548 | 80 | 110 | 13.0 | 21.0 | 0.00 | 0.00 | 0.00 | 65 | 1007.5 |
| 20260906160050 | 78 | 136 | 11.0 | 25.0 | 0.00 | 0.00 | 0.00 | 68 | 1007.3 |
| 20260906154543 | 77 | 107 | 14.0 | 23.0 | 0.00 | 0.00 | 0.00 | 68 | 1007.1 |
| 20260906153046 | 78 | 126 | 13.0 | 20.0 | 0.00 | 0.00 | 0.00 | 67 | 1007.0 |
| 20260906151537 | 78 | 113 | 13.0 | 20.0 | 0.00 | 0.00 | 0.00 | 66 | 1007.1 |
| 20260906150048 | 78 | 123 | 13.0 | 25.0 | 0.00 | 0.00 | 0.00 | 67 | 1007.0 |
| 20260906144538 | 74 | 80 | 9.0 | 14.0 | 0.00 | 0.00 | 0.00 | 75 | 1007.2 |
| 20260906143037 | 73 | 92 | 6.0 | 15.0 | 0.00 | 0.00 | 0.00 | 77 | 1007.3 |
| 20260906141537 | 73 | 107 | 8.0 | 15.0 | 0.00 | 0.00 | 0.00 | 77 | 1007.3 |
| 20260906140027 | 73 | 62 | 6.0 | 13.0 | 0.00 | 0.00 | 0.00 | 76 | 1007.4 |
| 20260906134525 | 72 | 82 | 9.0 | 14.0 | 0.00 | 0.00 | 0.00 | 78 | 1007.5 |
| 20260906133022 | 71 | 84 | 5.0 | 14.0 | 0.00 | 0.00 | 0.00 | 79 | 1007.3 |
| 20260906131525 | 71 | 43 | 6.0 | 12.0 | 0.00 | 0.00 | 0.00 | 78 | 1007.0 |
| 20260906130025 | 72 | 39 | 3.0 | 9.0 | 0.00 | 0.00 | 0.00 | 77 | 1006.8 |
| 20260906124512 | 72 | 76 | 5.0 | 11.0 | 0.00 | 0.00 | 0.00 | 77 | 1006.6 |
| 20260906123013 | 72 | 31 | 4.0 | 5.0 | 0.00 | 0.00 | 0.00 | 76 | 1006.5 |
| 20260906121510 | 72 | 16 | 1.0 | 9.0 | 0.00 | 0.00 | 0.00 | 77 | 1006.0 |
| 20260906120005 | 73 | 343 | 5.0 | 9.0 | 0.00 | 0.00 | 0.00 | 75 | 1005.9 |
| 20260906114501 | 73 | 221 | 2.0 | 5.0 | 0.00 | 0.00 | 0.00 | 75 | 1005.4 |
| 20260906113105 | 72 | 184 | 2.0 | 4.0 | 0.00 | 0.00 | 0.00 | 76 | 1005.2 |
| 20260906111530 | 73 | 180 | 0.0 | 3.0 | 0.00 | 0.00 | 0.00 | 76 | 1005.2 |
| 20260906110039 | 72 | 161 | 0.0 | 1.0 | 0.00 | 0.00 | 0.00 | 77 | 1005.2 |
| 20260906104527 | 72 | 161 | 0.0 | 0.0 | 0.00 | 0.00 | 0.00 | 77 | 1005.2 |
| 20260906103026 | 72 | 161 | 0.0 | 0.0 | 0.00 | 0.00 | 0.00 | 77 | 1005.3 |
| 20260906101526 | 72 | 161 | 0.0 | 0.0 | 0.00 | 0.00 | 0.00 | 77 | 1005.2 |
| 20260906100024 | 72 | 161 | 0.0 | 4.0 | 0.00 | 0.00 | 0.00 | 77 | 1005.1 |
| 20260906094530 | 72 | 140 | 2.0 | 5.0 | 0.00 | 0.00 | 0.00 | 77 | 1004.9 |
| 20260906093022 | 72 | 167 | 4.0 | 6.0 | 0.00 | 0.00 | 0.00 | 78 | 1005.0 |
| 20260906091521 | 72 | 176 | 4.0 | 8.0 | 0.00 | 0.00 | 0.00 | 78 | 1005.0 |
| 20260906090020 | 72 | 173 | 6.0 | 9.0 | 0.00 | 0.00 | 0.00 | 80 | 1005.0 |
| 20260906084515 | 73 | 136 | 7.0 | 11.0 | 0.00 | 0.00 | 0.00 | 75 | 1004.8 |
| 20260906083111 | 75 | 145 | 7.0 | 13.0 | 0.00 | 0.00 | 0.00 | 68 | 1004.9 |
| 20260906081526 | 76 | 192 | 7.0 | 11.0 | 0.00 | 0.00 | 0.00 | 65 | 1004.6 |
| 20260906080007 | 76 | 165 | 7.0 | 14.0 | 0.00 | 0.00 | 0.00 | 67 | 1004.8 |
| 20260906074536 | 75 | 178 | 7.0 | 11.0 | 0.00 | 0.00 | 0.00 | 69 | 1004.9 |
| 20260906073035 | 75 | 121 | 4.0 | 11.0 | 0.00 | 0.00 | 0.00 | 71 | 1005.0 |
| 20260906071504 | 75 | 123 | 5.0 | 11.0 | 0.00 | 0.00 | 0.00 | 70 | 1005.2 |
| 20260906070002 | 75 | 108 | 7.0 | 10.0 | 0.00 | 0.00 | 0.00 | 71 | 1005.2 |
| 20260906064559 | 75 | 117 | 5.0 | 9.0 | 0.00 | 0.00 | 0.00 | 71 | 1005.1 |
| 20260906063031 | 74 | 134 | 4.0 | 9.0 | 0.00 | 0.00 | 0.00 | 71 | 1004.9 |
| 20260906061534 | 75 | 112 | 4.0 | 10.0 | 0.00 | 0.00 | 0.00 | 70 | 1004.9 |
| 20260906060019 | 75 | 159 | 5.0 | 9.0 | 0.00 | 0.00 | 0.00 | 70 | 1004.8 |
| 20260906054517 | 75 | 163 | 5.0 | 9.0 | 0.00 | 0.00 | 0.00 | 69 | 1004.6 |
| 20260906053017 | 75 | 132 | 6.0 | 8.0 | 0.00 | 0.00 | 0.00 | 68 | 1004.4 |
| 20260906051512 | 75 | 145 | 4.0 | 8.0 | 0.00 | 0.00 | 0.00 | 68 | 1004.3 |
| 20260906050006 | 76 | 134 | 4.0 | 8.0 | 0.00 | 0.00 | 0.00 | 67 | 1004.2 |
| 20260906044505 | 76 | 146 | 5.0 | 8.0 | 0.00 | 0.00 | 0.00 | 66 | 1004.2 |
| 20260906043004 | 77 | 136 | 4.0 | 10.0 | 0.00 | 0.00 | 0.00 | 64 | 1004.2 |
| 20260906041505 | 78 | 150 | 7.0 | 10.0 | 0.00 | 0.00 | 0.00 | 63 | 1004.6 |
| 20260906040004 | 79 | 123 | 7.0 | 11.0 | 0.00 | 0.00 | 0.00 | 61 | 1004.6 |
| 20260906034606 | 79 | 167 | 7.0 | 15.0 | 0.00 | 0.00 | 0.00 | 60 | 1004.5 |
| 20260906034501 | 79 | 134 | 8.0 | 15.0 | 0.00 | 0.00 | 0.00 | 60 | 1004.6 |
| 20260906033100 | 80 | 144 | 8.0 | 15.0 | 0.00 | 0.00 | 0.00 | 60 | 1004.4 |
| 20260906031603 | 80 | 127 | 9.0 | 14.0 | 0.00 | 0.00 | 0.00 | 61 | 1004.2 |
| 20260906030028 | 79 | 119 | 5.0 | 10.0 | 0.00 | 0.00 | 0.00 | 62 | 1004.4 |
| 20260906024528 | 80 | 103 | 5.0 | 9.0 | 0.00 | 0.00 | 0.00 | 61 | 1004.2 |
| 20260906023024 | 81 | 128 | 6.0 | 13.0 | 0.00 | 0.00 | 0.00 | 60 | 1003.9 |
| 20260906021524 | 81 | 118 | 9.0 | 13.0 | 0.00 | 0.00 | 0.00 | 58 | 1003.6 |
| 20260906020030 | 82 | 138 | 9.0 | 16.0 | 0.00 | 0.00 | 0.00 | 57 | 1003.6 |
| 20260906014522 | 82 | 123 | 7.0 | 13.0 | 0.00 | 0.00 | 0.00 | 56 | 1003.4 |
| 20260906013020 | 86 | 123 | 9.0 | 13.0 | 0.00 | 0.00 | 0.00 | 50 | 1003.2 |
| 20260906011519 | 87 | 155 | 5.0 | 10.0 | 0.00 | 0.00 | 0.00 | 46 | 1002.6 |
| 20260906010016 | 88 | 164 | 7.0 | 12.0 | 0.00 | 0.00 | 0.00 | 45 | 1002.5 |
| 20260906004517 | 90 | 143 | 7.0 | 16.0 | 0.00 | 0.00 | 0.00 | 43 | 1002.6 |
| 20260906003022 | 91 | 153 | 9.0 | 20.0 | 0.00 | 0.00 | 0.00 | 42 | 1002.6 |
| 20260906001514 | 92 | 157 | 13.0 | 21.0 | 0.00 | 0.00 | 0.00 | 41 | 1002.5 |
| 20260906000013 | 93 | 184 | 10.0 | 15.0 | 0.00 | 0.00 | 0.00 | 39 | 1002.4 |
| 20260905234512 | 94 | 184 | 9.0 | 22.0 | 0.00 | 0.00 | 0.00 | 38 | 1002.4 |
| 20260905233011 | 94 | 138 | 9.0 | 17.0 | 0.00 | 0.00 | 0.00 | 38 | 1002.4 |
| 20260905231506 | 94 | 169 | 7.0 | 21.0 | 0.00 | 0.00 | 0.00 | 41 | 1002.3 |
| 20260905230003 | 94 | 117 | 10.0 | 19.0 | 0.00 | 0.00 | 0.00 | 41 | 1002.2 |
| 20260905224502 | 94 | 127 | 9.0 | 18.0 | 0.00 | 0.00 | 0.00 | 41 | 1002.1 |
| 20260905223056 | 94 | 151 | 9.0 | 20.0 | 0.00 | 0.00 | 0.00 | 42 | 1002.1 |
| 20260905221559 | 94 | 148 | 10.0 | 18.0 | 0.00 | 0.00 | 0.00 | 44 | 1002.1 |
| 20260905220100 | 94 | 110 | 8.0 | 17.0 | 0.00 | 0.00 | 0.00 | 44 | 1002.2 |
| 20260905214550 | 93 | 136 | 9.0 | 19.0 | 0.00 | 0.00 | 0.00 | 44 | 1002.3 |
| 20260905213020 | 93 | 126 | 11.0 | 19.0 | 0.00 | 0.00 | 0.00 | 42 | 1002.5 |
| 20260905211535 | 93 | 146 | 11.0 | 19.0 | 0.00 | 0.00 | 0.00 | 42 | 1002.8 |
| 20260905210015 | 92 | 166 | 11.0 | 17.0 | 0.00 | 0.00 | 0.00 | 44 | 1003.0 |
| 20260905204511 | 92 | 155 | 10.0 | 19.0 | 0.00 | 0.00 | 0.00 | 45 | 1003.3 |
| 20260905203009 | 91 | 152 | 8.0 | 21.0 | 0.00 | 0.00 | 0.00 | 48 | 1003.5 |